sensor_id;sensor_type;location;lat;lon;timestamp;P1;durP1;ratioP1;P2;durP2;ratioP2
55706;SDS011;41608;45.384;20.394;2023-04-29T00:02:00;11.13;;;7.30;;
55706;SDS011;41608;45.384;20.394;2023-04-29T00:04:29;14.57;;;7.13;;
55706;SDS011;41608;45.384;20.394;2023-04-29T00:06:55;11.63;;;7.07;;
55706;SDS011;41608;45.384;20.394;2023-04-29T00:09:21;11.38;;;7.05;;
55706;SDS011;41608;45.384;20.394;2023-04-29T00:11:50;10.05;;;6.95;;
55706;SDS011;41608;45.384;20.394;2023-04-29T00:14:16;11.82;;;6.95;;
55706;SDS011;41608;45.384;20.394;2023-04-29T00:16:42;10.23;;;7.10;;
55706;SDS011;41608;45.384;20.394;2023-04-29T00:19:09;13.90;;;7.30;;
55706;SDS011;41608;45.384;20.394;2023-04-29T00:21:35;8.57;;;5.72;;
55706;SDS011;41608;45.384;20.394;2023-04-29T00:24:01;10.00;;;6.10;;
55706;SDS011;41608;45.384;20.394;2023-04-29T00:26:27;11.82;;;6.43;;
55706;SDS011;41608;45.384;20.394;2023-04-29T00:28:56;11.60;;;5.78;;
55706;SDS011;41608;45.384;20.394;2023-04-29T00:31:29;7.68;;;6.35;;
55706;SDS011;41608;45.384;20.394;2023-04-29T00:33:56;9.60;;;6.20;;
55706;SDS011;41608;45.384;20.394;2023-04-29T00:36:25;10.60;;;7.10;;
55706;SDS011;41608;45.384;20.394;2023-04-29T00:38:55;10.95;;;6.55;;
55706;SDS011;41608;45.384;20.394;2023-04-29T00:41:31;11.82;;;7.18;;
55706;SDS011;41608;45.384;20.394;2023-04-29T00:43:57;12.67;;;8.83;;
55706;SDS011;41608;45.384;20.394;2023-04-29T00:46:26;10.63;;;7.88;;
55706;SDS011;41608;45.384;20.394;2023-04-29T00:48:52;12.27;;;8.20;;
55706;SDS011;41608;45.384;20.394;2023-04-29T00:51:18;13.23;;;7.78;;
55706;SDS011;41608;45.384;20.394;2023-04-29T00:53:47;12.40;;;9.20;;
55706;SDS011;41608;45.384;20.394;2023-04-29T00:56:14;10.55;;;8.32;;
55706;SDS011;41608;45.384;20.394;2023-04-29T00:58:45;17.33;;;9.98;;
55706;SDS011;41608;45.384;20.394;2023-04-29T01:01:17;13.65;;;8.70;;
55706;SDS011;41608;45.384;20.394;2023-04-29T01:03:43;10.50;;;8.23;;
55706;SDS011;41608;45.384;20.394;2023-04-29T01:12:05;13.02;;;8.77;;
55706;SDS011;41608;45.384;20.394;2023-04-29T01:14:33;12.20;;;9.02;;
55706;SDS011;41608;45.384;20.394;2023-04-29T01:17:10;11.20;;;8.05;;
55706;SDS011;41608;45.384;20.394;2023-04-29T01:19:45;13.80;;;9.00;;
55706;SDS011;41608;45.384;20.394;2023-04-29T01:22:12;13.10;;;9.40;;
55706;SDS011;41608;45.384;20.394;2023-04-29T01:24:39;13.07;;;8.23;;
55706;SDS011;41608;45.384;20.394;2023-04-29T01:27:50;18.08;;;9.45;;
55706;SDS011;41608;45.384;20.394;2023-04-29T01:29:58;16.15;;;10.07;;
55706;SDS011;41608;45.384;20.394;2023-04-29T01:32:33;16.05;;;10.48;;
55706;SDS011;41608;45.384;20.394;2023-04-29T01:35:03;14.07;;;8.33;;
55706;SDS011;41608;45.384;20.394;2023-04-29T01:37:40;13.25;;;7.95;;
55706;SDS011;41608;45.384;20.394;2023-04-29T01:40:18;12.38;;;9.02;;
55706;SDS011;41608;45.384;20.394;2023-04-29T01:42:51;10.32;;;7.80;;
55706;SDS011;41608;45.384;20.394;2023-04-29T01:45:20;13.82;;;8.65;;
55706;SDS011;41608;45.384;20.394;2023-04-29T01:47:51;11.35;;;7.25;;
55706;SDS011;41608;45.384;20.394;2023-04-29T01:50:20;12.07;;;8.02;;
55706;SDS011;41608;45.384;20.394;2023-04-29T01:52:46;12.07;;;8.27;;
55706;SDS011;41608;45.384;20.394;2023-04-29T01:55:12;12.80;;;7.78;;
55706;SDS011;41608;45.384;20.394;2023-04-29T01:57:41;12.93;;;8.40;;
55706;SDS011;41608;45.384;20.394;2023-04-29T02:00:08;12.55;;;7.50;;
55706;SDS011;41608;45.384;20.394;2023-04-29T02:02:35;13.32;;;7.55;;
55706;SDS011;41608;45.384;20.394;2023-04-29T02:05:02;11.70;;;7.03;;
55706;SDS011;41608;45.384;20.394;2023-04-29T02:07:28;9.48;;;6.57;;
55706;SDS011;41608;45.384;20.394;2023-04-29T02:09:54;9.13;;;6.03;;
55706;SDS011;41608;45.384;20.394;2023-04-29T02:12:20;13.07;;;6.80;;
55706;SDS011;41608;45.384;20.394;2023-04-29T02:14:46;9.48;;;6.40;;
55706;SDS011;41608;45.384;20.394;2023-04-29T02:17:12;7.32;;;5.97;;
55706;SDS011;41608;45.384;20.394;2023-04-29T02:19:41;12.40;;;6.88;;
55706;SDS011;41608;45.384;20.394;2023-04-29T02:22:07;10.88;;;6.95;;
55706;SDS011;41608;45.384;20.394;2023-04-29T02:24:36;10.65;;;7.30;;
55706;SDS011;41608;45.384;20.394;2023-04-29T02:27:03;13.95;;;7.07;;
55706;SDS011;41608;45.384;20.394;2023-04-29T02:29:32;9.20;;;6.68;;
55706;SDS011;41608;45.384;20.394;2023-04-29T02:31:58;13.80;;;7.03;;
55706;SDS011;41608;45.384;20.394;2023-04-29T02:34:24;12.07;;;6.75;;
55706;SDS011;41608;45.384;20.394;2023-04-29T02:36:50;12.00;;;7.57;;
55706;SDS011;41608;45.384;20.394;2023-04-29T02:39:16;8.50;;;6.85;;
55706;SDS011;41608;45.384;20.394;2023-04-29T02:41:44;13.82;;;7.28;;
55706;SDS011;41608;45.384;20.394;2023-04-29T02:44:10;10.57;;;7.15;;
55706;SDS011;41608;45.384;20.394;2023-04-29T02:46:36;9.68;;;6.72;;
55706;SDS011;41608;45.384;20.394;2023-04-29T02:49:04;12.18;;;7.50;;
55706;SDS011;41608;45.384;20.394;2023-04-29T02:51:31;9.63;;;6.72;;
55706;SDS011;41608;45.384;20.394;2023-04-29T02:53:57;8.48;;;7.50;;
55706;SDS011;41608;45.384;20.394;2023-04-29T02:56:26;10.73;;;6.72;;
55706;SDS011;41608;45.384;20.394;2023-04-29T02:58:53;8.85;;;6.43;;
55706;SDS011;41608;45.384;20.394;2023-04-29T03:01:20;10.77;;;5.82;;
55706;SDS011;41608;45.384;20.394;2023-04-29T03:03:46;8.70;;;6.30;;
55706;SDS011;41608;45.384;20.394;2023-04-29T03:06:13;8.45;;;5.85;;
55706;SDS011;41608;45.384;20.394;2023-04-29T03:08:40;9.52;;;6.00;;
55706;SDS011;41608;45.384;20.394;2023-04-29T03:11:06;8.00;;;5.97;;
55706;SDS011;41608;45.384;20.394;2023-04-29T03:13:34;9.07;;;5.38;;
55706;SDS011;41608;45.384;20.394;2023-04-29T03:16:01;7.72;;;6.18;;
55706;SDS011;41608;45.384;20.394;2023-04-29T03:18:28;7.20;;;5.03;;
55706;SDS011;41608;45.384;20.394;2023-04-29T03:20:56;10.15;;;5.57;;
55706;SDS011;41608;45.384;20.394;2023-04-29T03:23:22;8.32;;;5.88;;
55706;SDS011;41608;45.384;20.394;2023-04-29T03:25:48;9.45;;;6.00;;
55706;SDS011;41608;45.384;20.394;2023-04-29T03:28:17;9.65;;;6.25;;
55706;SDS011;41608;45.384;20.394;2023-04-29T03:30:43;10.88;;;6.90;;
55706;SDS011;41608;45.384;20.394;2023-04-29T03:33:09;8.65;;;5.93;;
55706;SDS011;41608;45.384;20.394;2023-04-29T03:35:35;8.05;;;6.22;;
55706;SDS011;41608;45.384;20.394;2023-04-29T03:38:05;7.20;;;5.95;;
55706;SDS011;41608;45.384;20.394;2023-04-29T03:40:31;8.27;;;6.28;;
55706;SDS011;41608;45.384;20.394;2023-04-29T03:42:57;11.73;;;6.55;;
55706;SDS011;41608;45.384;20.394;2023-04-29T03:45:24;11.30;;;6.00;;
55706;SDS011;41608;45.384;20.394;2023-04-29T03:47:53;13.63;;;7.25;;
55706;SDS011;41608;45.384;20.394;2023-04-29T03:50:20;11.60;;;7.43;;
55706;SDS011;41608;45.384;20.394;2023-04-29T03:52:46;14.77;;;8.82;;
55706;SDS011;41608;45.384;20.394;2023-04-29T03:55:12;12.18;;;8.93;;
55706;SDS011;41608;45.384;20.394;2023-04-29T03:57:38;11.68;;;8.45;;
55706;SDS011;41608;45.384;20.394;2023-04-29T04:00:05;11.50;;;7.75;;
55706;SDS011;41608;45.384;20.394;2023-04-29T04:02:34;10.02;;;6.85;;
55706;SDS011;41608;45.384;20.394;2023-04-29T04:05:00;11.00;;;6.75;;
55706;SDS011;41608;45.384;20.394;2023-04-29T04:07:28;11.27;;;6.93;;
55706;SDS011;41608;45.384;20.394;2023-04-29T04:09:54;13.70;;;7.75;;
55706;SDS011;41608;45.384;20.394;2023-04-29T04:12:21;13.45;;;6.85;;
55706;SDS011;41608;45.384;20.394;2023-04-29T04:14:47;14.25;;;7.53;;
55706;SDS011;41608;45.384;20.394;2023-04-29T04:17:14;12.60;;;7.57;;
55706;SDS011;41608;45.384;20.394;2023-04-29T04:19:40;10.43;;;7.32;;
55706;SDS011;41608;45.384;20.394;2023-04-29T04:22:06;14.02;;;6.68;;
55706;SDS011;41608;45.384;20.394;2023-04-29T04:24:32;9.55;;;7.57;;
55706;SDS011;41608;45.384;20.394;2023-04-29T04:26:59;13.15;;;7.35;;
55706;SDS011;41608;45.384;20.394;2023-04-29T04:29:26;12.20;;;7.68;;
55706;SDS011;41608;45.384;20.394;2023-04-29T04:31:52;10.40;;;6.53;;
55706;SDS011;41608;45.384;20.394;2023-04-29T04:34:18;7.50;;;5.95;;
55706;SDS011;41608;45.384;20.394;2023-04-29T04:36:44;9.63;;;6.28;;
55706;SDS011;41608;45.384;20.394;2023-04-29T04:39:10;8.02;;;6.65;;
55706;SDS011;41608;45.384;20.394;2023-04-29T04:41:37;10.90;;;6.85;;
55706;SDS011;41608;45.384;20.394;2023-04-29T04:44:03;10.60;;;7.43;;
55706;SDS011;41608;45.384;20.394;2023-04-29T04:46:31;11.20;;;7.22;;
55706;SDS011;41608;45.384;20.394;2023-04-29T04:48:58;12.20;;;7.78;;
55706;SDS011;41608;45.384;20.394;2023-04-29T04:51:24;9.13;;;6.68;;
55706;SDS011;41608;45.384;20.394;2023-04-29T04:53:52;12.05;;;6.85;;
55706;SDS011;41608;45.384;20.394;2023-04-29T04:56:19;12.45;;;7.25;;
55706;SDS011;41608;45.384;20.394;2023-04-29T04:58:45;16.05;;;8.60;;
55706;SDS011;41608;45.384;20.394;2023-04-29T05:01:11;13.65;;;7.70;;
55706;SDS011;41608;45.384;20.394;2023-04-29T05:03:37;12.55;;;8.85;;
55706;SDS011;41608;45.384;20.394;2023-04-29T05:06:04;14.27;;;8.35;;
55706;SDS011;41608;45.384;20.394;2023-04-29T05:08:30;11.85;;;7.90;;
55706;SDS011;41608;45.384;20.394;2023-04-29T05:10:56;12.63;;;8.30;;
55706;SDS011;41608;45.384;20.394;2023-04-29T05:13:22;11.10;;;7.90;;
55706;SDS011;41608;45.384;20.394;2023-04-29T05:15:49;14.65;;;8.02;;
55706;SDS011;41608;45.384;20.394;2023-04-29T05:18:15;12.00;;;7.20;;
55706;SDS011;41608;45.384;20.394;2023-04-29T05:20:42;14.38;;;8.35;;
55706;SDS011;41608;45.384;20.394;2023-04-29T05:23:08;12.95;;;8.88;;
55706;SDS011;41608;45.384;20.394;2023-04-29T05:25:34;10.35;;;7.70;;
55706;SDS011;41608;45.384;20.394;2023-04-29T05:28:01;16.73;;;8.35;;
55706;SDS011;41608;45.384;20.394;2023-04-29T05:30:28;13.50;;;8.60;;
55706;SDS011;41608;45.384;20.394;2023-04-29T05:32:54;10.90;;;8.50;;
55706;SDS011;41608;45.384;20.394;2023-04-29T05:35:21;15.63;;;9.20;;
55706;SDS011;41608;45.384;20.394;2023-04-29T05:37:47;14.90;;;8.52;;
55706;SDS011;41608;45.384;20.394;2023-04-29T05:40:13;13.50;;;9.35;;
55706;SDS011;41608;45.384;20.394;2023-04-29T05:42:39;15.35;;;9.13;;
55706;SDS011;41608;45.384;20.394;2023-04-29T05:45:06;14.30;;;8.48;;
55706;SDS011;41608;45.384;20.394;2023-04-29T05:47:33;13.40;;;8.02;;
55706;SDS011;41608;45.384;20.394;2023-04-29T05:49:59;12.23;;;8.70;;
55706;SDS011;41608;45.384;20.394;2023-04-29T05:52:27;16.60;;;9.38;;
55706;SDS011;41608;45.384;20.394;2023-04-29T05:54:54;17.88;;;9.70;;
55706;SDS011;41608;45.384;20.394;2023-04-29T05:57:20;16.08;;;8.70;;
55706;SDS011;41608;45.384;20.394;2023-04-29T05:59:46;11.63;;;8.80;;
55706;SDS011;41608;45.384;20.394;2023-04-29T06:02:12;15.35;;;9.93;;
55706;SDS011;41608;45.384;20.394;2023-04-29T06:04:39;19.70;;;10.80;;
55706;SDS011;41608;45.384;20.394;2023-04-29T06:07:05;16.48;;;9.82;;
55706;SDS011;41608;45.384;20.394;2023-04-29T06:09:34;18.67;;;9.32;;
55706;SDS011;41608;45.384;20.394;2023-04-29T06:12:00;15.88;;;9.25;;
55706;SDS011;41608;45.384;20.394;2023-04-29T06:14:27;15.25;;;7.90;;
55706;SDS011;41608;45.384;20.394;2023-04-29T06:16:53;19.33;;;10.30;;
55706;SDS011;41608;45.384;20.394;2023-04-29T06:19:20;18.20;;;9.68;;
55706;SDS011;41608;45.384;20.394;2023-04-29T06:21:46;15.63;;;9.77;;
55706;SDS011;41608;45.384;20.394;2023-04-29T06:24:12;16.05;;;10.00;;
55706;SDS011;41608;45.384;20.394;2023-04-29T06:26:38;11.73;;;8.85;;
55706;SDS011;41608;45.384;20.394;2023-04-29T06:29:04;16.27;;;9.80;;
55706;SDS011;41608;45.384;20.394;2023-04-29T06:31:33;14.35;;;10.20;;
55706;SDS011;41608;45.384;20.394;2023-04-29T06:34:02;13.38;;;8.80;;
55706;SDS011;41608;45.384;20.394;2023-04-29T06:36:28;13.57;;;8.65;;
55706;SDS011;41608;45.384;20.394;2023-04-29T06:38:54;12.90;;;8.40;;
55706;SDS011;41608;45.384;20.394;2023-04-29T06:41:22;12.18;;;8.75;;
55706;SDS011;41608;45.384;20.394;2023-04-29T06:43:49;18.90;;;8.57;;
55706;SDS011;41608;45.384;20.394;2023-04-29T06:46:15;10.82;;;8.38;;
55706;SDS011;41608;45.384;20.394;2023-04-29T06:48:41;15.50;;;8.68;;
55706;SDS011;41608;45.384;20.394;2023-04-29T06:51:07;15.15;;;8.60;;
55706;SDS011;41608;45.384;20.394;2023-04-29T06:53:33;14.55;;;8.43;;
55706;SDS011;41608;45.384;20.394;2023-04-29T06:56:00;13.57;;;8.60;;
55706;SDS011;41608;45.384;20.394;2023-04-29T06:58:26;14.27;;;8.45;;
55706;SDS011;41608;45.384;20.394;2023-04-29T07:00:52;13.15;;;7.55;;
55706;SDS011;41608;45.384;20.394;2023-04-29T07:03:21;20.42;;;8.23;;
55706;SDS011;41608;45.384;20.394;2023-04-29T07:05:47;10.70;;;7.38;;
55706;SDS011;41608;45.384;20.394;2023-04-29T07:08:13;15.95;;;8.75;;
55706;SDS011;41608;45.384;20.394;2023-04-29T07:10:39;13.15;;;8.88;;
55706;SDS011;41608;45.384;20.394;2023-04-29T07:13:05;17.42;;;9.10;;
55706;SDS011;41608;45.384;20.394;2023-04-29T07:15:35;10.13;;;7.78;;
55706;SDS011;41608;45.384;20.394;2023-04-29T07:18:05;12.50;;;7.93;;
55706;SDS011;41608;45.384;20.394;2023-04-29T07:20:35;12.07;;;8.23;;
55706;SDS011;41608;45.384;20.394;2023-04-29T07:23:01;16.98;;;10.88;;
55706;SDS011;41608;45.384;20.394;2023-04-29T07:25:27;11.63;;;8.57;;
55706;SDS011;41608;45.384;20.394;2023-04-29T07:27:53;14.85;;;7.93;;
55706;SDS011;41608;45.384;20.394;2023-04-29T07:30:20;12.82;;;8.70;;
55706;SDS011;41608;45.384;20.394;2023-04-29T07:32:47;17.80;;;10.43;;
55706;SDS011;41608;45.384;20.394;2023-04-29T07:35:13;14.10;;;9.68;;
55706;SDS011;41608;45.384;20.394;2023-04-29T07:37:39;14.27;;;9.27;;
55706;SDS011;41608;45.384;20.394;2023-04-29T07:40:07;14.95;;;9.13;;
55706;SDS011;41608;45.384;20.394;2023-04-29T07:42:34;9.57;;;6.63;;
55706;SDS011;41608;45.384;20.394;2023-04-29T07:45:00;13.52;;;7.40;;
55706;SDS011;41608;45.384;20.394;2023-04-29T07:47:26;11.30;;;6.88;;
55706;SDS011;41608;45.384;20.394;2023-04-29T07:49:52;11.95;;;7.03;;
55706;SDS011;41608;45.384;20.394;2023-04-29T07:52:18;12.50;;;7.43;;
55706;SDS011;41608;45.384;20.394;2023-04-29T07:54:44;14.43;;;6.80;;
55706;SDS011;41608;45.384;20.394;2023-04-29T07:57:10;13.38;;;7.20;;
55706;SDS011;41608;45.384;20.394;2023-04-29T07:59:36;9.45;;;6.68;;
55706;SDS011;41608;45.384;20.394;2023-04-29T08:02:03;15.38;;;7.07;;
55706;SDS011;41608;45.384;20.394;2023-04-29T08:04:29;9.80;;;6.50;;
55706;SDS011;41608;45.384;20.394;2023-04-29T08:06:55;10.68;;;6.40;;
55706;SDS011;41608;45.384;20.394;2023-04-29T08:09:24;11.38;;;6.20;;
55706;SDS011;41608;45.384;20.394;2023-04-29T08:11:50;13.05;;;6.82;;
55706;SDS011;41608;45.384;20.394;2023-04-29T08:14:16;11.13;;;6.07;;
55706;SDS011;41608;45.384;20.394;2023-04-29T08:16:45;10.82;;;5.57;;
55706;SDS011;41608;45.384;20.394;2023-04-29T08:19:16;8.75;;;5.43;;
55706;SDS011;41608;45.384;20.394;2023-04-29T08:21:48;10.25;;;5.18;;
55706;SDS011;41608;45.384;20.394;2023-04-29T08:24:15;10.23;;;5.82;;
55706;SDS011;41608;45.384;20.394;2023-04-29T08:26:41;12.07;;;5.25;;
55706;SDS011;41608;45.384;20.394;2023-04-29T08:29:07;11.18;;;6.03;;
55706;SDS011;41608;45.384;20.394;2023-04-29T08:31:33;11.07;;;6.22;;
55706;SDS011;41608;45.384;20.394;2023-04-29T08:34:00;9.77;;;6.00;;
55706;SDS011;41608;45.384;20.394;2023-04-29T08:36:26;12.98;;;6.00;;
55706;SDS011;41608;45.384;20.394;2023-04-29T08:38:53;7.15;;;5.00;;
55706;SDS011;41608;45.384;20.394;2023-04-29T08:41:19;9.32;;;5.40;;
55706;SDS011;41608;45.384;20.394;2023-04-29T08:43:45;8.45;;;5.97;;
55706;SDS011;41608;45.384;20.394;2023-04-29T08:46:11;9.45;;;5.32;;
55706;SDS011;41608;45.384;20.394;2023-04-29T08:48:38;12.82;;;6.07;;
55706;SDS011;41608;45.384;20.394;2023-04-29T08:51:05;7.88;;;5.13;;
55706;SDS011;41608;45.384;20.394;2023-04-29T08:53:31;7.97;;;5.63;;
55706;SDS011;41608;45.384;20.394;2023-04-29T08:55:59;8.10;;;5.43;;
55706;SDS011;41608;45.384;20.394;2023-04-29T08:58:27;8.93;;;5.57;;
55706;SDS011;41608;45.384;20.394;2023-04-29T09:00:54;12.80;;;5.38;;
55706;SDS011;41608;45.384;20.394;2023-04-29T09:05:48;9.55;;;5.47;;
55706;SDS011;41608;45.384;20.394;2023-04-29T09:08:17;7.85;;;4.75;;
55706;SDS011;41608;45.384;20.394;2023-04-29T09:10:45;13.50;;;6.38;;
55706;SDS011;41608;45.384;20.394;2023-04-29T09:13:24;8.25;;;5.15;;
55706;SDS011;41608;45.384;20.394;2023-04-29T09:15:51;10.18;;;5.15;;
55706;SDS011;41608;45.384;20.394;2023-04-29T09:21:15;9.82;;;5.55;;
55706;SDS011;41608;45.384;20.394;2023-04-29T09:24:00;7.88;;;5.03;;
55706;SDS011;41608;45.384;20.394;2023-04-29T09:26:26;9.90;;;6.13;;
55706;SDS011;41608;45.384;20.394;2023-04-29T09:29:07;18.38;;;7.03;;
55706;SDS011;41608;45.384;20.394;2023-04-29T09:31:33;10.73;;;5.35;;
55706;SDS011;41608;45.384;20.394;2023-04-29T09:33:59;8.38;;;5.10;;
55706;SDS011;41608;45.384;20.394;2023-04-29T09:36:35;5.50;;;3.97;;
55706;SDS011;41608;45.384;20.394;2023-04-29T09:39:05;5.47;;;3.47;;
55706;SDS011;41608;45.384;20.394;2023-04-29T09:41:36;9.70;;;4.38;;
55706;SDS011;41608;45.384;20.394;2023-04-29T09:44:05;5.20;;;3.85;;
55706;SDS011;41608;45.384;20.394;2023-04-29T09:46:35;5.78;;;4.38;;
55706;SDS011;41608;45.384;20.394;2023-04-29T09:49:01;7.97;;;3.97;;
55706;SDS011;41608;45.384;20.394;2023-04-29T09:51:31;6.78;;;4.68;;
55706;SDS011;41608;45.384;20.394;2023-04-29T09:53:58;7.82;;;4.30;;
55706;SDS011;41608;45.384;20.394;2023-04-29T09:56:27;9.13;;;4.40;;
55706;SDS011;41608;45.384;20.394;2023-04-29T09:58:54;7.57;;;3.85;;
55706;SDS011;41608;45.384;20.394;2023-04-29T10:01:21;12.55;;;4.85;;
55706;SDS011;41608;45.384;20.394;2023-04-29T10:03:47;8.35;;;3.72;;
55706;SDS011;41608;45.384;20.394;2023-04-29T10:06:14;6.38;;;3.92;;
55706;SDS011;41608;45.384;20.394;2023-04-29T10:08:43;9.55;;;4.00;;
55706;SDS011;41608;45.384;20.394;2023-04-29T10:11:11;8.25;;;4.28;;
55706;SDS011;41608;45.384;20.394;2023-04-29T10:13:39;12.13;;;3.80;;
55706;SDS011;41608;45.384;20.394;2023-04-29T10:16:09;10.30;;;4.57;;
55706;SDS011;41608;45.384;20.394;2023-04-29T10:18:39;7.75;;;3.53;;
55706;SDS011;41608;45.384;20.394;2023-04-29T10:21:09;5.80;;;3.17;;
55706;SDS011;41608;45.384;20.394;2023-04-29T10:23:36;7.22;;;3.28;;
55706;SDS011;41608;45.384;20.394;2023-04-29T10:26:06;5.63;;;3.22;;
55706;SDS011;41608;45.384;20.394;2023-04-29T10:28:33;9.82;;;3.53;;
55706;SDS011;41608;45.384;20.394;2023-04-29T10:31:01;5.78;;;3.80;;
55706;SDS011;41608;45.384;20.394;2023-04-29T10:33:31;9.10;;;3.60;;
55706;SDS011;41608;45.384;20.394;2023-04-29T10:35:59;8.80;;;3.13;;
55706;SDS011;41608;45.384;20.394;2023-04-29T10:38:36;6.63;;;3.80;;
55706;SDS011;41608;45.384;20.394;2023-04-29T10:41:47;7.95;;;4.30;;
55706;SDS011;41608;45.384;20.394;2023-04-29T10:43:55;6.00;;;3.45;;
55706;SDS011;41608;45.384;20.394;2023-04-29T10:46:26;11.48;;;4.78;;
55706;SDS011;41608;45.384;20.394;2023-04-29T10:49:04;7.47;;;3.63;;
55706;SDS011;41608;45.384;20.394;2023-04-29T10:51:32;10.15;;;4.00;;
55706;SDS011;41608;45.384;20.394;2023-04-29T10:53:59;11.73;;;3.92;;
55706;SDS011;41608;45.384;20.394;2023-04-29T10:56:35;5.00;;;3.70;;
55706;SDS011;41608;45.384;20.394;2023-04-29T10:59:02;11.18;;;4.75;;
55706;SDS011;41608;45.384;20.394;2023-04-29T11:01:44;25.63;;;5.85;;
55706;SDS011;41608;45.384;20.394;2023-04-29T11:04:11;34.95;;;8.95;;
55706;SDS011;41608;45.384;20.394;2023-04-29T11:06:38;8.48;;;4.60;;
55706;SDS011;41608;45.384;20.394;2023-04-29T11:09:09;12.40;;;4.43;;
55706;SDS011;41608;45.384;20.394;2023-04-29T11:11:43;5.47;;;3.97;;
55706;SDS011;41608;45.384;20.394;2023-04-29T11:14:09;8.00;;;3.45;;
55706;SDS011;41608;45.384;20.394;2023-04-29T11:16:36;6.95;;;3.85;;
55706;SDS011;41608;45.384;20.394;2023-04-29T11:19:03;10.05;;;3.80;;
55706;SDS011;41608;45.384;20.394;2023-04-29T11:21:30;8.10;;;4.22;;
55706;SDS011;41608;45.384;20.394;2023-04-29T11:23:59;8.38;;;3.22;;
55706;SDS011;41608;45.384;20.394;2023-04-29T11:26:26;4.78;;;3.35;;
55706;SDS011;41608;45.384;20.394;2023-04-29T11:28:52;6.05;;;2.92;;
55706;SDS011;41608;45.384;20.394;2023-04-29T11:31:18;9.60;;;2.92;;
55706;SDS011;41608;45.384;20.394;2023-04-29T11:33:45;4.63;;;2.72;;
55706;SDS011;41608;45.384;20.394;2023-04-29T11:36:14;6.03;;;3.38;;
55706;SDS011;41608;45.384;20.394;2023-04-29T11:38:40;7.47;;;3.45;;
55706;SDS011;41608;45.384;20.394;2023-04-29T11:41:06;5.00;;;2.85;;
55706;SDS011;41608;45.384;20.394;2023-04-29T11:43:33;6.63;;;3.15;;
55706;SDS011;41608;45.384;20.394;2023-04-29T11:46:00;4.72;;;2.47;;
55706;SDS011;41608;45.384;20.394;2023-04-29T11:48:26;5.43;;;2.90;;
55706;SDS011;41608;45.384;20.394;2023-04-29T11:50:56;7.22;;;3.17;;
55706;SDS011;41608;45.384;20.394;2023-04-29T11:53:25;8.65;;;3.10;;
55706;SDS011;41608;45.384;20.394;2023-04-29T11:55:52;6.50;;;2.95;;
55706;SDS011;41608;45.384;20.394;2023-04-29T11:58:22;6.50;;;2.75;;
55706;SDS011;41608;45.384;20.394;2023-04-29T12:00:48;8.07;;;3.55;;
55706;SDS011;41608;45.384;20.394;2023-04-29T12:03:19;4.45;;;2.55;;
55706;SDS011;41608;45.384;20.394;2023-04-29T12:05:51;8.43;;;3.03;;
55706;SDS011;41608;45.384;20.394;2023-04-29T12:08:25;4.95;;;2.65;;
55706;SDS011;41608;45.384;20.394;2023-04-29T12:10:53;6.90;;;3.45;;
55706;SDS011;41608;45.384;20.394;2023-04-29T12:13:19;5.55;;;3.47;;
55706;SDS011;41608;45.384;20.394;2023-04-29T12:15:50;5.55;;;3.53;;
55706;SDS011;41608;45.384;20.394;2023-04-29T12:18:17;4.40;;;3.40;;
55706;SDS011;41608;45.384;20.394;2023-04-29T12:20:46;5.28;;;2.97;;
55706;SDS011;41608;45.384;20.394;2023-04-29T12:23:13;7.53;;;2.90;;
55706;SDS011;41608;45.384;20.394;2023-04-29T12:25:40;4.10;;;2.67;;
55706;SDS011;41608;45.384;20.394;2023-04-29T12:28:12;10.70;;;3.15;;
55706;SDS011;41608;45.384;20.394;2023-04-29T12:30:39;5.18;;;2.70;;
55706;SDS011;41608;45.384;20.394;2023-04-29T12:33:07;5.80;;;2.55;;
55706;SDS011;41608;45.384;20.394;2023-04-29T12:35:36;6.60;;;2.50;;
55706;SDS011;41608;45.384;20.394;2023-04-29T12:38:04;8.68;;;2.95;;
55706;SDS011;41608;45.384;20.394;2023-04-29T12:40:31;5.65;;;3.20;;
55706;SDS011;41608;45.384;20.394;2023-04-29T12:43:05;7.15;;;3.47;;
55706;SDS011;41608;45.384;20.394;2023-04-29T12:45:32;5.72;;;2.65;;
55706;SDS011;41608;45.384;20.394;2023-04-29T12:47:58;11.80;;;2.88;;
55706;SDS011;41608;45.384;20.394;2023-04-29T12:50:31;10.55;;;3.30;;
55706;SDS011;41608;45.384;20.394;2023-04-29T12:52:58;5.03;;;2.45;;
55706;SDS011;41608;45.384;20.394;2023-04-29T12:55:24;7.93;;;2.85;;
55706;SDS011;41608;45.384;20.394;2023-04-29T12:57:50;6.88;;;3.83;;
55706;SDS011;41608;45.384;20.394;2023-04-29T13:00:17;5.43;;;3.45;;
55706;SDS011;41608;45.384;20.394;2023-04-29T13:02:44;5.75;;;2.58;;
55706;SDS011;41608;45.384;20.394;2023-04-29T13:05:11;5.28;;;2.47;;
55706;SDS011;41608;45.384;20.394;2023-04-29T13:07:37;5.72;;;2.80;;
55706;SDS011;41608;45.384;20.394;2023-04-29T13:10:03;5.47;;;2.33;;
55706;SDS011;41608;45.384;20.394;2023-04-29T13:12:31;5.22;;;2.50;;
55706;SDS011;41608;45.384;20.394;2023-04-29T13:14:59;6.53;;;2.78;;
55706;SDS011;41608;45.384;20.394;2023-04-29T13:17:25;6.45;;;2.47;;
55706;SDS011;41608;45.384;20.394;2023-04-29T13:19:52;6.70;;;3.10;;
55706;SDS011;41608;45.384;20.394;2023-04-29T13:22:20;4.07;;;2.42;;
55706;SDS011;41608;45.384;20.394;2023-04-29T13:24:49;4.50;;;2.72;;
55706;SDS011;41608;45.384;20.394;2023-04-29T13:27:17;6.22;;;3.50;;
55706;SDS011;41608;45.384;20.394;2023-04-29T13:29:43;5.90;;;2.47;;
55706;SDS011;41608;45.384;20.394;2023-04-29T13:32:09;6.55;;;2.67;;
55706;SDS011;41608;45.384;20.394;2023-04-29T13:34:36;5.18;;;2.90;;
55706;SDS011;41608;45.384;20.394;2023-04-29T13:37:02;4.40;;;2.70;;
55706;SDS011;41608;45.384;20.394;2023-04-29T13:39:28;7.60;;;2.53;;
55706;SDS011;41608;45.384;20.394;2023-04-29T13:41:54;5.32;;;2.38;;
55706;SDS011;41608;45.384;20.394;2023-04-29T13:44:21;5.30;;;2.63;;
55706;SDS011;41608;45.384;20.394;2023-04-29T13:46:50;8.95;;;3.33;;
55706;SDS011;41608;45.384;20.394;2023-04-29T13:49:16;8.90;;;3.15;;
55706;SDS011;41608;45.384;20.394;2023-04-29T13:51:42;5.97;;;2.88;;
55706;SDS011;41608;45.384;20.394;2023-04-29T13:54:08;5.30;;;2.88;;
55706;SDS011;41608;45.384;20.394;2023-04-29T13:56:34;6.05;;;2.30;;
55706;SDS011;41608;45.384;20.394;2023-04-29T13:59:01;5.75;;;2.88;;
55706;SDS011;41608;45.384;20.394;2023-04-29T14:01:27;9.95;;;3.17;;
55706;SDS011;41608;45.384;20.394;2023-04-29T14:03:53;9.45;;;2.50;;
55706;SDS011;41608;45.384;20.394;2023-04-29T14:06:19;4.15;;;2.38;;
55706;SDS011;41608;45.384;20.394;2023-04-29T14:08:47;5.15;;;2.70;;
55706;SDS011;41608;45.384;20.394;2023-04-29T14:11:14;8.10;;;3.08;;
55706;SDS011;41608;45.384;20.394;2023-04-29T14:13:40;5.60;;;2.72;;
55706;SDS011;41608;45.384;20.394;2023-04-29T14:16:07;4.15;;;2.67;;
55706;SDS011;41608;45.384;20.394;2023-04-29T14:18:33;30.55;;;13.75;;
55706;SDS011;41608;45.384;20.394;2023-04-29T14:21:01;23.42;;;11.95;;
55706;SDS011;41608;45.384;20.394;2023-04-29T14:23:28;4.60;;;3.35;;
55706;SDS011;41608;45.384;20.394;2023-04-29T14:25:54;7.55;;;4.00;;
55706;SDS011;41608;45.384;20.394;2023-04-29T14:28:20;7.88;;;4.90;;
55706;SDS011;41608;45.384;20.394;2023-04-29T14:30:47;5.93;;;3.28;;
55706;SDS011;41608;45.384;20.394;2023-04-29T14:33:13;41.97;;;27.73;;
55706;SDS011;41608;45.384;20.394;2023-04-29T14:35:39;12.63;;;8.27;;
55706;SDS011;41608;45.384;20.394;2023-04-29T14:38:05;5.35;;;3.08;;
55706;SDS011;41608;45.384;20.394;2023-04-29T14:40:31;4.90;;;2.58;;